createdAt,value
2018-07-31T00:01:38.266Z,26.32
2018-07-31T00:02:38.268Z,26.28
2018-07-31T00:04:31.192Z,26.26
2018-07-31T00:05:31.219Z,26.32
2018-07-31T00:07:24.160Z,26.23
2018-07-31T00:08:24.169Z,26.18
2018-07-31T00:10:17.094Z,26.10
2018-07-31T00:11:17.122Z,26.07
2018-07-31T00:13:10.072Z,25.99
2018-07-31T00:14:10.077Z,26.07
2018-07-31T00:16:03.038Z,26.09
2018-07-31T00:17:03.035Z,26.02
2018-07-31T00:18:55.954Z,26.07
2018-07-31T00:19:55.982Z,26.06
2018-07-31T00:21:48.932Z,26.05
2018-07-31T00:22:48.932Z,26.01
2018-07-31T00:24:41.856Z,25.91
2018-07-31T00:25:41.884Z,26.06
2018-07-31T00:27:34.821Z,26.07
2018-07-31T00:28:34.831Z,25.95
2018-07-31T00:30:27.753Z,26.01
2018-07-31T00:31:27.779Z,26.01
2018-07-31T00:33:20.726Z,25.94
2018-07-31T00:34:20.732Z,25.98
2018-07-31T00:36:13.656Z,25.95
2018-07-31T00:37:13.683Z,25.92
2018-07-31T00:39:06.623Z,25.95
2018-07-31T00:40:06.634Z,25.91
2018-07-31T00:41:59.554Z,25.91
2018-07-31T00:42:59.583Z,25.92
2018-07-31T00:44:52.528Z,25.85
2018-07-31T00:45:52.532Z,25.83
2018-07-31T00:47:45.473Z,25.83
2018-07-31T00:48:45.482Z,25.79
2018-07-31T00:50:38.403Z,25.67
2018-07-31T00:51:38.428Z,25.69
2018-07-31T00:53:31.369Z,25.57
2018-07-31T00:54:31.438Z,25.45
2018-07-31T00:56:24.358Z,25.45
2018-07-31T00:57:24.325Z,25.39
2018-07-31T00:59:17.264Z,25.32
2018-07-31T01:00:17.273Z,25.23
2018-07-31T01:02:10.192Z,25.27
2018-07-31T01:03:10.222Z,25.25
2018-07-31T01:05:03.161Z,25.32
2018-07-31T01:06:03.168Z,25.35
2018-07-31T01:07:56.129Z,25.35
2018-07-31T01:08:56.116Z,25.27
2018-07-31T01:10:49.038Z,25.30
2018-07-31T01:11:49.068Z,25.24
2018-07-31T01:13:42.003Z,25.18
2018-07-31T01:14:42.016Z,25.09
2018-07-31T01:16:34.931Z,25.00
2018-07-31T01:17:34.960Z,24.99
2018-07-31T01:19:27.898Z,24.93
2018-07-31T01:20:27.908Z,24.95
2018-07-31T01:22:20.826Z,24.96
2018-07-31T01:23:20.860Z,24.90
2018-07-31T01:25:13.789Z,24.77
2018-07-31T01:26:13.801Z,24.84
2018-07-31T01:28:06.716Z,24.88
2018-07-31T01:29:06.748Z,24.78
2018-07-31T01:30:59.684Z,24.68
2018-07-31T01:31:59.692Z,24.68
2018-07-31T01:33:52.606Z,24.61
2018-07-31T01:34:52.632Z,24.53
2018-07-31T01:36:45.576Z,24.50
2018-07-31T01:37:45.582Z,24.49
2018-07-31T01:39:38.519Z,24.43
2018-07-31T01:40:38.528Z,24.39
2018-07-31T01:42:31.444Z,24.35
2018-07-31T01:43:31.478Z,24.47
2018-07-31T01:45:24.413Z,24.46
2018-07-31T01:46:24.421Z,24.37
2018-07-31T01:48:17.339Z,24.47
2018-07-31T01:49:17.367Z,24.46
2018-07-31T01:51:10.304Z,24.42
2018-07-31T01:52:10.314Z,24.47
2018-07-31T01:54:03.230Z,24.39
2018-07-31T01:55:03.259Z,24.34
2018-07-31T01:56:56.205Z,24.30
2018-07-31T01:57:56.208Z,24.24
2018-07-31T01:59:49.149Z,24.28
2018-07-31T02:00:49.200Z,24.28
2018-07-31T02:02:42.075Z,24.20
2018-07-31T02:03:42.104Z,24.24
2018-07-31T02:05:35.040Z,24.22
2018-07-31T02:06:35.051Z,24.10
2018-07-31T02:08:27.963Z,24.12
2018-07-31T02:09:27.995Z,24.00
2018-07-31T02:11:20.927Z,24.02
2018-07-31T02:12:20.933Z,24.00
2018-07-31T02:14:13.850Z,24.12
2018-07-31T02:15:13.883Z,24.00
2018-07-31T02:17:06.814Z,24.16
2018-07-31T02:18:06.818Z,23.98
2018-07-31T02:19:59.742Z,24.13
2018-07-31T02:20:59.771Z,24.05
2018-07-31T02:22:52.708Z,23.94
2018-07-31T02:23:52.717Z,23.98
2018-07-31T02:25:45.653Z,24.00
2018-07-31T02:26:45.661Z,23.90
2018-07-31T02:28:38.634Z,23.91
2018-07-31T02:29:38.606Z,23.88
2018-07-31T02:31:31.555Z,23.70
2018-07-31T02:32:31.559Z,23.73
2018-07-31T02:34:24.477Z,23.72
2018-07-31T02:35:24.507Z,23.57
2018-07-31T02:37:17.451Z,23.57
2018-07-31T02:38:17.452Z,23.58
2018-07-31T02:40:10.368Z,23.58
2018-07-31T02:41:10.400Z,23.53
2018-07-31T02:43:03.336Z,23.50
2018-07-31T02:44:03.338Z,23.55
2018-07-31T02:45:56.270Z,23.47
2018-07-31T02:46:56.418Z,23.50
2018-07-31T02:48:49.222Z,23.48
2018-07-31T02:49:49.233Z,23.40
2018-07-31T02:51:42.167Z,23.28
2018-07-31T02:52:42.190Z,23.20
2018-07-31T02:54:35.093Z,23.36
2018-07-31T02:55:35.120Z,23.38
2018-07-31T02:57:28.061Z,23.39
2018-07-31T02:58:28.067Z,23.43
2018-07-31T03:00:20.985Z,23.50
2018-07-31T03:01:21.072Z,23.36
2018-07-31T03:03:13.951Z,23.43
2018-07-31T03:04:13.959Z,23.46
2018-07-31T03:06:06.878Z,23.40
2018-07-31T03:07:06.906Z,23.46
2018-07-31T03:08:59.845Z,23.35
2018-07-31T03:09:59.851Z,23.48
2018-07-31T03:11:52.808Z,23.43
2018-07-31T03:12:52.798Z,23.47
2018-07-31T03:14:45.718Z,23.38
2018-07-31T03:15:45.746Z,23.27
2018-07-31T03:17:38.686Z,23.31
2018-07-31T03:18:38.694Z,23.28
2018-07-31T03:20:31.608Z,23.36
2018-07-31T03:21:31.638Z,23.38
2018-07-31T03:23:24.575Z,23.27
2018-07-31T03:24:24.582Z,23.19
2018-07-31T03:26:17.500Z,23.27
2018-07-31T03:27:17.557Z,23.28
2018-07-31T03:29:10.459Z,23.42
2018-07-31T03:30:10.471Z,23.33
2018-07-31T03:32:03.387Z,23.33
2018-07-31T03:33:03.410Z,23.33
2018-07-31T03:34:56.358Z,23.36
2018-07-31T03:35:56.355Z,23.36
2018-07-31T03:37:49.295Z,23.38
2018-07-31T03:38:49.306Z,23.36
2018-07-31T03:40:42.220Z,23.43
2018-07-31T03:41:42.248Z,23.40
2018-07-31T03:43:35.192Z,23.39
2018-07-31T03:44:35.192Z,23.33
2018-07-31T03:46:28.113Z,23.35
2018-07-31T03:47:28.142Z,23.22
2018-07-31T03:49:21.085Z,23.19
2018-07-31T03:50:21.089Z,23.23
2018-07-31T03:52:14.006Z,23.22
2018-07-31T03:53:14.033Z,23.05
2018-07-31T03:55:06.969Z,23.04
2018-07-31T03:56:06.978Z,23.05
2018-07-31T03:57:59.891Z,23.05
2018-07-31T03:58:59.914Z,23.07
2018-07-31T04:00:52.856Z,23.09
2018-07-31T04:01:52.865Z,23.10
2018-07-31T04:03:45.795Z,22.90
2018-07-31T04:04:45.842Z,22.92
2018-07-31T04:06:38.718Z,22.88
2018-07-31T04:07:38.751Z,22.98
2018-07-31T04:09:31.682Z,23.10
2018-07-31T04:10:31.691Z,23.25
2018-07-31T04:12:24.613Z,23.38
2018-07-31T04:13:24.635Z,23.54
2018-07-31T04:15:17.573Z,23.76
2018-07-31T04:16:17.576Z,23.80
2018-07-31T04:18:10.497Z,24.00
2018-07-31T04:19:10.523Z,23.98
2018-07-31T04:21:03.476Z,24.39
2018-07-31T04:22:03.481Z,24.35
2018-07-31T04:23:56.404Z,24.60
2018-07-31T04:24:56.431Z,24.65
2018-07-31T04:26:50.364Z,24.96
2018-07-31T04:27:50.376Z,25.09
2018-07-31T04:29:43.310Z,25.42
2018-07-31T04:30:43.320Z,25.50
2018-07-31T04:32:36.237Z,25.65
2018-07-31T04:33:36.267Z,25.83
2018-07-31T04:35:29.204Z,25.92
2018-07-31T04:36:29.215Z,25.95
2018-07-31T04:38:22.133Z,26.09
2018-07-31T04:39:22.160Z,26.09
2018-07-31T04:41:15.112Z,26.47
2018-07-31T04:42:15.121Z,26.52
2018-07-31T04:44:08.033Z,26.66
2018-07-31T04:45:08.058Z,26.85
2018-07-31T04:47:00.999Z,27.07
2018-07-31T04:48:01.007Z,27.04
2018-07-31T04:49:53.950Z,26.99
2018-07-31T04:50:53.958Z,26.81
2018-07-31T04:52:46.888Z,26.82
2018-07-31T04:53:46.909Z,26.88
2018-07-31T04:55:39.852Z,27.19
2018-07-31T04:56:39.875Z,27.29
2018-07-31T04:58:32.790Z,27.43
2018-07-31T04:59:32.832Z,27.47
2018-07-31T05:01:25.757Z,27.69
2018-07-31T05:02:25.764Z,27.74
2018-07-31T05:04:18.698Z,27.81
2018-07-31T05:05:18.719Z,27.79
2018-07-31T05:07:11.665Z,27.99
2018-07-31T05:08:11.672Z,28.03
2018-07-31T05:10:04.598Z,28.44
2018-07-31T05:11:04.678Z,28.62
2018-07-31T05:12:57.580Z,28.64
2018-07-31T05:13:57.583Z,28.59
2018-07-31T05:15:50.529Z,28.43
2018-07-31T05:16:50.540Z,28.29
2018-07-31T05:18:43.473Z,28.17
2018-07-31T05:19:43.493Z,27.93
2018-07-31T05:21:36.450Z,27.78
2018-07-31T05:22:36.465Z,27.62
2018-07-31T05:24:29.387Z,27.74
2018-07-31T05:25:29.412Z,27.78
2018-07-31T05:27:22.363Z,27.94
2018-07-31T05:28:22.369Z,27.99
2018-07-31T05:30:15.299Z,27.85
2018-07-31T05:31:15.323Z,27.93
2018-07-31T05:33:08.277Z,27.93
2018-07-31T05:34:08.275Z,27.79
2018-07-31T05:36:02.237Z,27.50
2018-07-31T05:37:02.308Z,27.29
2018-07-31T05:38:55.159Z,27.07
2018-07-31T05:39:55.188Z,26.91
2018-07-31T05:41:48.138Z,26.63
2018-07-31T05:42:48.148Z,26.62
2018-07-31T05:44:41.077Z,26.33
2018-07-31T05:45:41.098Z,26.32
2018-07-31T05:47:34.044Z,26.13
2018-07-31T05:48:34.051Z,26.15
2018-07-31T05:50:26.975Z,26.30
2018-07-31T05:51:27.002Z,26.39
2018-07-31T05:53:19.953Z,26.57
2018-07-31T05:54:19.961Z,26.76
2018-07-31T05:56:12.890Z,27.06
2018-07-31T05:57:12.913Z,27.25
2018-07-31T05:59:05.864Z,27.67
2018-07-31T06:00:05.869Z,28.04
2018-07-31T06:01:58.822Z,28.48
2018-07-31T06:02:58.825Z,28.68
2018-07-31T06:04:51.752Z,29.30
2018-07-31T06:05:51.784Z,29.27
2018-07-31T06:07:44.729Z,29.65
2018-07-31T06:08:44.741Z,29.85
2018-07-31T06:10:37.677Z,30.43
2018-07-31T06:11:37.704Z,30.65
2018-07-31T06:13:30.657Z,30.61
2018-07-31T06:14:30.666Z,30.67
2018-07-31T06:16:23.596Z,31.19
2018-07-31T06:17:23.626Z,31.21
2018-07-31T06:19:16.582Z,30.86
2018-07-31T06:20:16.591Z,30.97
2018-07-31T06:22:09.519Z,31.07
2018-07-31T06:23:09.554Z,31.21
2018-07-31T06:25:02.509Z,31.32
2018-07-31T06:26:02.515Z,31.46
2018-07-31T06:27:55.473Z,31.95
2018-07-31T06:28:55.480Z,32.03
2018-07-31T06:30:48.412Z,32.10
2018-07-31T06:31:48.448Z,32.30
2018-07-31T06:33:41.406Z,32.59
2018-07-31T06:34:41.417Z,32.52
2018-07-31T06:36:34.349Z,32.55
2018-07-31T06:37:34.383Z,32.60
2018-07-31T06:39:27.340Z,32.43
2018-07-31T06:40:27.402Z,32.43
2018-07-31T06:42:20.285Z,32.25
2018-07-31T06:43:20.321Z,32.14
2018-07-31T06:45:13.282Z,32.14
2018-07-31T06:46:13.290Z,32.37
2018-07-31T06:48:06.247Z,32.26
2018-07-31T06:49:06.260Z,32.18
2018-07-31T06:50:59.191Z,32.11
2018-07-31T06:51:59.225Z,32.13
2018-07-31T06:53:52.184Z,32.00
2018-07-31T06:54:52.197Z,31.99
2018-07-31T06:56:45.163Z,32.14
2018-07-31T06:57:45.171Z,32.28
2018-07-31T06:59:38.127Z,31.62
2018-07-31T07:00:38.139Z,31.47
2018-07-31T07:02:31.074Z,31.36
2018-07-31T07:03:31.107Z,31.54
2018-07-31T07:05:24.065Z,31.75
2018-07-31T07:06:24.081Z,31.84
2018-07-31T07:08:17.015Z,31.99
2018-07-31T07:09:17.060Z,31.81
2018-07-31T07:11:10.010Z,31.81
2018-07-31T07:12:10.029Z,31.89
2018-07-31T07:14:02.984Z,31.85
2018-07-31T07:15:03.001Z,31.88
2018-07-31T07:16:55.937Z,32.14
2018-07-31T07:17:55.972Z,32.25
2018-07-31T07:19:48.931Z,32.40
2018-07-31T07:20:48.943Z,32.41
2018-07-31T07:22:41.892Z,32.45
2018-07-31T07:23:41.914Z,32.43
2018-07-31T07:25:34.873Z,32.44
2018-07-31T07:26:34.884Z,32.35
2018-07-31T07:28:27.817Z,32.18
2018-07-31T07:29:27.852Z,32.06
2018-07-31T07:31:20.810Z,31.95
2018-07-31T07:32:20.821Z,31.73
2018-07-31T07:34:13.761Z,31.36
2018-07-31T07:35:13.794Z,31.20
2018-07-31T07:37:06.751Z,30.91
2018-07-31T07:38:06.758Z,30.80
2018-07-31T07:39:59.731Z,30.72
2018-07-31T07:40:59.722Z,30.82
2018-07-31T07:42:52.652Z,30.76
2018-07-31T07:43:52.685Z,30.75
2018-07-31T07:45:45.639Z,30.83
2018-07-31T07:46:45.646Z,30.88
2018-07-31T07:48:38.570Z,30.88
2018-07-31T07:49:38.602Z,30.97
2018-07-31T07:51:31.557Z,31.02
2018-07-31T07:52:31.564Z,31.02
2018-07-31T07:54:24.654Z,30.91
2018-07-31T07:55:24.531Z,31.10
2018-07-31T07:57:17.480Z,31.06
2018-07-31T07:58:17.490Z,30.97
2018-07-31T08:00:10.426Z,31.13
2018-07-31T08:01:10.462Z,31.25
2018-07-31T08:03:03.412Z,31.31
2018-07-31T08:04:03.442Z,31.34
2018-07-31T08:05:57.032Z,31.31
2018-07-31T08:06:57.062Z,31.35
2018-07-31T08:08:50.022Z,31.56
2018-07-31T08:09:50.099Z,31.68
2018-07-31T08:11:42.977Z,31.85
2018-07-31T08:12:42.991Z,31.95
2018-07-31T08:14:35.910Z,32.14
2018-07-31T08:15:35.943Z,32.14
2018-07-31T08:17:28.893Z,32.11
2018-07-31T08:18:28.903Z,32.14
2018-07-31T08:20:21.897Z,32.18
2018-07-31T08:21:21.863Z,32.10
2018-07-31T08:23:14.821Z,32.22
2018-07-31T08:24:14.823Z,32.25
2018-07-31T08:26:07.752Z,32.37
2018-07-31T08:27:07.782Z,32.33
2018-07-31T08:29:00.739Z,32.06
2018-07-31T08:30:00.747Z,31.89
2018-07-31T08:31:53.673Z,31.75
2018-07-31T08:32:53.705Z,31.58
2018-07-31T08:34:46.651Z,31.69
2018-07-31T08:35:46.664Z,31.62
2018-07-31T08:37:39.617Z,31.73
2018-07-31T08:38:39.623Z,31.96
2018-07-31T08:40:32.553Z,32.11
2018-07-31T08:41:32.586Z,32.30
2018-07-31T08:43:25.540Z,32.41
2018-07-31T08:44:25.553Z,32.62
2018-07-31T08:46:18.483Z,32.81
2018-07-31T08:47:18.513Z,32.85
2018-07-31T08:49:11.504Z,32.89
2018-07-31T08:50:11.473Z,32.93
2018-07-31T08:52:04.432Z,32.84
2018-07-31T08:53:04.497Z,32.79
2018-07-31T08:54:57.464Z,32.47
2018-07-31T08:55:57.459Z,32.40
2018-07-31T08:57:50.325Z,32.37
2018-07-31T08:58:50.358Z,32.23
2018-07-31T09:00:43.313Z,32.41
2018-07-31T09:01:43.321Z,32.47
2018-07-31T09:03:37.266Z,32.57
2018-07-31T09:04:37.278Z,32.57
2018-07-31T09:06:30.206Z,32.67
2018-07-31T09:07:30.238Z,32.77
2018-07-31T09:09:23.193Z,33.01
2018-07-31T09:10:23.235Z,33.06
2018-07-31T09:12:16.133Z,32.92
2018-07-31T09:13:16.163Z,32.93
2018-07-31T09:15:09.132Z,32.92
2018-07-31T09:16:09.143Z,32.88
2018-07-31T09:18:02.073Z,32.99
2018-07-31T09:19:02.106Z,33.00
2018-07-31T09:20:55.060Z,33.07
2018-07-31T09:21:55.069Z,33.26
2018-07-31T09:23:48.000Z,33.35
2018-07-31T09:24:48.091Z,33.51
2018-07-31T09:26:40.989Z,33.65
2018-07-31T09:27:40.994Z,33.82
2018-07-31T09:29:33.950Z,33.93
2018-07-31T09:30:33.987Z,33.87
2018-07-31T09:32:26.894Z,34.08
2018-07-31T09:33:26.926Z,34.12
2018-07-31T09:35:19.875Z,34.25
2018-07-31T09:36:19.889Z,34.27
2018-07-31T09:38:12.838Z,34.32
2018-07-31T09:39:12.854Z,34.37
2018-07-31T09:41:05.806Z,34.46
2018-07-31T09:42:05.819Z,34.54
2018-07-31T09:43:58.754Z,34.47
2018-07-31T09:44:58.783Z,34.56
2018-07-31T09:46:51.741Z,34.62
2018-07-31T09:47:51.750Z,34.62
2018-07-31T09:49:44.716Z,34.62
2018-07-31T09:50:44.791Z,34.59
2018-07-31T09:52:37.680Z,34.59
2018-07-31T09:53:37.693Z,34.77
2018-07-31T09:55:30.650Z,34.56
2018-07-31T09:56:30.653Z,34.62
2018-07-31T09:58:23.586Z,34.75
2018-07-31T09:59:23.625Z,34.84
2018-07-31T10:01:16.572Z,34.99
2018-07-31T10:02:16.586Z,35.06
2018-07-31T10:04:09.515Z,34.81
2018-07-31T10:05:09.642Z,34.85
2018-07-31T10:07:02.499Z,34.87
2018-07-31T10:08:02.513Z,34.91
2018-07-31T10:09:55.446Z,35.00
2018-07-31T10:10:55.482Z,35.04
2018-07-31T10:12:48.441Z,35.25
2018-07-31T10:13:48.448Z,35.28
2018-07-31T10:15:41.383Z,35.44
2018-07-31T10:16:41.417Z,35.37
2018-07-31T10:18:34.388Z,35.55
2018-07-31T10:19:34.384Z,35.62
2018-07-31T10:21:27.344Z,35.84
2018-07-31T10:22:27.354Z,35.85
2018-07-31T10:24:20.287Z,35.85
2018-07-31T10:25:20.326Z,35.82
2018-07-31T10:27:13.279Z,35.66
2018-07-31T10:28:13.290Z,35.59
2018-07-31T10:30:06.231Z,35.55
2018-07-31T10:31:06.281Z,35.45
2018-07-31T10:32:59.225Z,35.41
2018-07-31T10:33:59.238Z,35.22
2018-07-31T10:35:52.174Z,35.07
2018-07-31T10:36:52.205Z,35.04
2018-07-31T10:38:45.166Z,35.02
2018-07-31T10:39:45.176Z,35.00
2018-07-31T10:41:38.143Z,35.28
2018-07-31T10:42:38.147Z,35.45
2018-07-31T10:44:31.081Z,35.47
2018-07-31T10:45:31.114Z,35.48
2018-07-31T10:47:24.073Z,35.62
2018-07-31T10:48:24.084Z,35.58
2018-07-31T10:50:17.023Z,35.78
2018-07-31T10:51:17.052Z,35.85
2018-07-31T10:53:10.011Z,36.03
2018-07-31T10:54:10.024Z,36.20
2018-07-31T10:56:02.956Z,36.31
2018-07-31T10:57:02.994Z,36.39
2018-07-31T10:58:55.948Z,36.54
2018-07-31T10:59:55.962Z,36.49
2018-07-31T11:01:48.894Z,36.20
2018-07-31T11:02:48.965Z,35.89
2018-07-31T11:04:41.887Z,35.50
2018-07-31T11:05:41.898Z,35.53
2018-07-31T11:07:34.856Z,35.26
2018-07-31T11:08:34.869Z,35.28
2018-07-31T11:10:27.825Z,35.31
2018-07-31T11:11:27.839Z,35.34
2018-07-31T11:13:20.812Z,35.47
2018-07-31T11:14:20.806Z,35.50
2018-07-31T11:16:13.737Z,35.63
2018-07-31T11:17:13.772Z,35.68
2018-07-31T11:19:06.731Z,35.77
2018-07-31T11:20:06.748Z,35.68
2018-07-31T11:21:59.683Z,35.65
2018-07-31T11:22:59.714Z,35.60
2018-07-31T11:24:52.675Z,35.85
2018-07-31T11:25:52.683Z,35.99
2018-07-31T11:27:45.615Z,36.12
2018-07-31T11:28:45.649Z,35.94
2018-07-31T11:30:38.607Z,35.50
2018-07-31T11:31:38.616Z,35.53
2018-07-31T11:33:31.612Z,35.29
2018-07-31T11:34:31.588Z,35.28
2018-07-31T11:36:24.532Z,35.36
2018-07-31T11:37:24.557Z,35.45
2018-07-31T11:39:17.518Z,35.70
2018-07-31T11:40:17.540Z,35.81
2018-07-31T11:42:10.485Z,35.56
2018-07-31T11:43:10.524Z,35.40
2018-07-31T11:45:03.478Z,35.00
2018-07-31T11:46:03.487Z,34.91
2018-07-31T11:47:56.424Z,34.78
2018-07-31T11:48:56.455Z,34.72
2018-07-31T11:50:49.416Z,34.82
2018-07-31T11:51:49.423Z,34.75
2018-07-31T11:53:42.356Z,34.96
2018-07-31T11:54:42.418Z,34.92
2018-07-31T11:56:35.347Z,34.89
2018-07-31T11:57:35.357Z,35.06
2018-07-31T11:59:28.304Z,35.15
2018-07-31T12:00:28.317Z,35.16
2018-07-31T12:02:21.251Z,35.14
2018-07-31T12:03:21.285Z,35.23
2018-07-31T12:05:14.245Z,35.06
2018-07-31T12:06:14.254Z,34.87
2018-07-31T12:08:07.186Z,34.49
2018-07-31T12:09:07.229Z,34.42
2018-07-31T12:11:00.174Z,34.32
2018-07-31T12:12:00.188Z,34.46
2018-07-31T12:13:53.150Z,34.62
2018-07-31T12:14:53.160Z,34.59
2018-07-31T12:16:46.115Z,34.64
2018-07-31T12:17:46.115Z,34.66
2018-07-31T12:19:39.075Z,35.04
2018-07-31T12:20:39.083Z,35.06
2018-07-31T12:22:32.015Z,35.19
2018-07-31T12:23:32.047Z,35.16
2018-07-31T12:25:25.004Z,35.28
2018-07-31T12:26:25.010Z,35.29
2018-07-31T12:28:17.947Z,35.38
2018-07-31T12:29:17.981Z,35.53
2018-07-31T12:31:10.937Z,35.55
2018-07-31T12:32:10.952Z,35.63
2018-07-31T12:34:03.883Z,35.43
2018-07-31T12:35:03.919Z,35.52
2018-07-31T12:36:56.874Z,35.52
2018-07-31T12:37:56.883Z,35.68
2018-07-31T12:39:49.816Z,35.70
2018-07-31T12:40:49.848Z,35.63
2018-07-31T12:42:42.799Z,35.74
2018-07-31T12:43:42.813Z,35.74
2018-07-31T12:45:35.746Z,35.80
2018-07-31T12:46:35.778Z,35.80
2018-07-31T12:48:28.737Z,36.07
2018-07-31T12:49:28.745Z,36.09
2018-07-31T12:51:21.705Z,36.13
2018-07-31T12:52:21.725Z,36.17
2018-07-31T12:54:14.647Z,35.93
2018-07-31T12:55:14.682Z,35.92
2018-07-31T12:57:07.640Z,35.78
2018-07-31T12:58:07.654Z,35.87
2018-07-31T13:00:00.701Z,35.65
2018-07-31T13:01:00.618Z,35.75
2018-07-31T13:02:53.582Z,35.74
2018-07-31T13:03:53.597Z,35.58
2018-07-31T13:05:46.532Z,35.50
2018-07-31T13:06:46.622Z,35.62
2018-07-31T13:08:39.525Z,35.52
2018-07-31T13:09:39.539Z,35.53
2018-07-31T13:11:32.505Z,35.70
2018-07-31T13:12:32.507Z,35.62
2018-07-31T13:14:25.442Z,35.53
2018-07-31T13:15:25.476Z,35.53
2018-07-31T13:17:18.433Z,35.29
2018-07-31T13:18:18.451Z,35.28
2018-07-31T13:20:11.381Z,35.48
2018-07-31T13:21:11.412Z,35.56
2018-07-31T13:23:04.371Z,35.65
2018-07-31T13:24:04.377Z,35.80
2018-07-31T13:25:57.321Z,35.85
2018-07-31T13:26:57.355Z,35.80
2018-07-31T13:28:50.313Z,35.99
2018-07-31T13:29:50.324Z,35.87
2018-07-31T13:31:43.257Z,35.81
2018-07-31T13:32:43.289Z,35.47
2018-07-31T13:34:36.256Z,35.25
2018-07-31T13:35:36.269Z,35.21
2018-07-31T13:37:29.203Z,35.04
2018-07-31T13:38:29.235Z,35.11
2018-07-31T13:40:22.197Z,35.23
2018-07-31T13:41:22.204Z,35.43
2018-07-31T13:43:15.160Z,35.50
2018-07-31T13:44:15.374Z,35.43
2018-07-31T13:46:08.114Z,35.25
2018-07-31T13:47:08.145Z,35.21
2018-07-31T13:49:01.105Z,35.09
2018-07-31T13:50:01.119Z,35.03
2018-07-31T13:51:54.052Z,34.99
2018-07-31T13:52:54.082Z,34.99
2018-07-31T13:54:47.039Z,35.10
2018-07-31T13:55:47.046Z,35.22
2018-07-31T13:57:39.983Z,35.44
2018-07-31T13:58:40.018Z,35.52
2018-07-31T14:00:32.974Z,35.58
2018-07-31T14:01:33.019Z,35.72
2018-07-31T14:03:25.952Z,35.77
2018-07-31T14:04:25.951Z,35.66
2018-07-31T14:06:18.885Z,35.72
2018-07-31T14:07:18.918Z,35.84
2018-07-31T14:09:11.884Z,36.05
2018-07-31T14:10:11.883Z,36.20
2018-07-31T14:12:04.823Z,36.25
2018-07-31T14:13:04.861Z,36.31
2018-07-31T14:14:57.815Z,36.31
2018-07-31T14:15:57.826Z,36.22
2018-07-31T14:17:50.754Z,36.28
2018-07-31T14:18:50.790Z,36.28
2018-07-31T14:20:43.746Z,36.43
2018-07-31T14:21:43.755Z,36.43
2018-07-31T14:23:36.690Z,36.46
2018-07-31T14:24:36.723Z,36.28
2018-07-31T14:26:29.680Z,36.13
2018-07-31T14:27:29.693Z,36.01
2018-07-31T14:29:22.621Z,35.93
2018-07-31T14:30:22.713Z,35.80
2018-07-31T14:32:15.614Z,35.82
2018-07-31T14:33:15.628Z,35.63
2018-07-31T14:35:08.583Z,35.36
2018-07-31T14:36:08.594Z,35.00
2018-07-31T14:38:01.527Z,35.09
2018-07-31T14:39:01.562Z,35.04
2018-07-31T14:40:54.517Z,35.26
2018-07-31T14:41:54.528Z,35.29
2018-07-31T14:43:47.458Z,35.41
2018-07-31T14:44:47.493Z,35.43
2018-07-31T14:46:40.451Z,35.31
2018-07-31T14:47:40.465Z,35.31
2018-07-31T14:49:33.399Z,35.07
2018-07-31T14:50:33.431Z,35.00
2018-07-31T14:52:26.706Z,34.87
2018-07-31T14:53:26.682Z,34.75
2018-07-31T14:55:19.608Z,34.56
2018-07-31T14:56:19.652Z,34.54
2018-07-31T14:58:12.605Z,34.66
2018-07-31T14:59:12.607Z,34.65
2018-07-31T15:01:05.572Z,34.59
2018-07-31T15:02:05.574Z,34.73
2018-07-31T15:03:58.506Z,34.54
2018-07-31T15:04:58.538Z,34.50
2018-07-31T15:06:51.489Z,34.25
2018-07-31T15:07:51.503Z,34.25
2018-07-31T15:09:44.435Z,34.16
2018-07-31T15:10:44.510Z,34.21
2018-07-31T15:12:37.423Z,34.15
2018-07-31T15:13:37.433Z,34.19
2018-07-31T15:15:30.365Z,34.16
2018-07-31T15:16:30.396Z,34.08
2018-07-31T15:18:23.352Z,34.17
2018-07-31T15:19:23.361Z,34.25
2018-07-31T15:21:16.316Z,34.27
2018-07-31T15:22:16.326Z,34.35
2018-07-31T15:24:09.283Z,34.34
2018-07-31T15:25:09.289Z,34.25
2018-07-31T15:27:02.248Z,34.22
2018-07-31T15:28:02.278Z,34.17
2018-07-31T15:29:55.188Z,34.17
2018-07-31T15:30:55.220Z,33.98
2018-07-31T15:32:48.177Z,33.86
2018-07-31T15:33:48.189Z,33.95
2018-07-31T15:35:41.160Z,34.08
2018-07-31T15:36:41.148Z,34.03
2018-07-31T15:38:34.105Z,33.95
2018-07-31T15:39:34.114Z,33.88
2018-07-31T15:41:27.053Z,33.86
2018-07-31T15:42:27.073Z,33.84
2018-07-31T15:44:20.032Z,33.78
2018-07-31T15:45:20.038Z,33.84
2018-07-31T15:47:12.976Z,33.59
2018-07-31T15:48:13.064Z,33.45
2018-07-31T15:50:05.964Z,33.23
2018-07-31T15:51:05.972Z,33.29
2018-07-31T15:52:58.927Z,33.29
2018-07-31T15:53:58.988Z,33.22
2018-07-31T15:55:51.866Z,33.00
2018-07-31T15:56:51.899Z,33.11
2018-07-31T15:58:44.853Z,33.16
2018-07-31T15:59:44.886Z,33.21
2018-07-31T16:01:37.794Z,33.37
2018-07-31T16:02:37.825Z,33.53
2018-07-31T16:04:30.780Z,33.44
2018-07-31T16:05:30.791Z,33.49
2018-07-31T16:07:23.723Z,33.38
2018-07-31T16:08:23.753Z,33.38
2018-07-31T16:10:16.726Z,33.16
2018-07-31T16:11:16.738Z,33.23
2018-07-31T16:13:09.669Z,33.23
2018-07-31T16:14:09.701Z,33.29
2018-07-31T16:16:02.657Z,33.18
2018-07-31T16:17:02.667Z,33.29
2018-07-31T16:18:55.683Z,33.22
2018-07-31T16:19:55.631Z,33.23
2018-07-31T16:21:48.589Z,33.38
2018-07-31T16:22:48.628Z,33.47
2018-07-31T16:24:41.575Z,33.47
2018-07-31T16:25:41.586Z,33.50
2018-07-31T16:27:34.519Z,33.39
2018-07-31T16:28:34.628Z,33.34
2018-07-31T16:30:27.507Z,33.23
2018-07-31T16:31:27.518Z,33.19
2018-07-31T16:33:20.452Z,33.11
2018-07-31T16:34:20.483Z,33.11
2018-07-31T16:36:13.440Z,32.93
2018-07-31T16:37:13.452Z,32.99
2018-07-31T16:39:06.416Z,32.89
2018-07-31T16:40:06.418Z,32.96
2018-07-31T16:41:59.346Z,32.72
2018-07-31T16:42:59.378Z,32.72
2018-07-31T16:44:52.334Z,32.65
2018-07-31T16:45:52.347Z,32.70
2018-07-31T16:47:45.279Z,32.60
2018-07-31T16:48:45.312Z,32.62
2018-07-31T16:50:38.264Z,32.77
2018-07-31T16:51:38.275Z,32.72
2018-07-31T16:53:31.202Z,32.87
2018-07-31T16:54:31.234Z,32.84
2018-07-31T16:56:24.189Z,32.84
2018-07-31T16:57:24.200Z,32.69
2018-07-31T16:59:17.137Z,32.85
2018-07-31T17:00:17.195Z,32.97
2018-07-31T17:02:10.116Z,33.12
2018-07-31T17:03:10.128Z,33.14
2018-07-31T17:05:03.059Z,33.22
2018-07-31T17:06:03.087Z,33.35
2018-07-31T17:07:56.041Z,33.14
2018-07-31T17:08:56.046Z,33.14
2018-07-31T17:10:49.000Z,33.11
2018-07-31T17:11:49.006Z,33.06
2018-07-31T17:13:41.936Z,33.07
2018-07-31T17:14:42.069Z,33.11
2018-07-31T17:16:34.921Z,33.12
2018-07-31T17:17:34.935Z,33.11
2018-07-31T17:19:27.857Z,32.99
2018-07-31T17:20:27.892Z,32.84
2018-07-31T17:22:20.844Z,32.70
2018-07-31T17:23:20.852Z,32.67
2018-07-31T17:25:13.784Z,32.70
2018-07-31T17:26:13.810Z,32.62
2018-07-31T17:28:06.767Z,32.62
2018-07-31T17:29:06.774Z,32.51
2018-07-31T17:30:59.740Z,32.50
2018-07-31T17:31:59.736Z,32.45
2018-07-31T17:33:52.669Z,32.41
2018-07-31T17:34:52.698Z,32.45
2018-07-31T17:36:45.660Z,32.37
2018-07-31T17:37:45.673Z,32.41
2018-07-31T17:39:38.605Z,32.41
2018-07-31T17:40:38.637Z,32.40
2018-07-31T17:42:31.787Z,32.37
2018-07-31T17:43:31.778Z,32.38
2018-07-31T17:45:24.588Z,32.30
2018-07-31T17:46:24.567Z,32.26
2018-07-31T17:48:17.518Z,32.07
2018-07-31T17:49:17.528Z,31.88
2018-07-31T17:51:10.460Z,31.58
2018-07-31T17:52:10.490Z,31.57
2018-07-31T17:54:03.435Z,31.47
2018-07-31T17:55:03.446Z,31.28
2018-07-31T17:56:56.373Z,31.48
2018-07-31T17:57:56.409Z,31.26
2018-07-31T17:59:49.355Z,31.32
2018-07-31T18:00:49.364Z,31.23
2018-07-31T18:02:42.316Z,31.19
2018-07-31T18:03:42.379Z,31.16
2018-07-31T18:05:35.254Z,31.16
2018-07-31T18:06:35.287Z,31.23
2018-07-31T18:08:28.232Z,31.25
2018-07-31T18:09:28.243Z,31.31
2018-07-31T18:11:21.173Z,31.41
2018-07-31T18:12:21.203Z,31.57
2018-07-31T18:14:14.286Z,31.43
2018-07-31T18:15:14.161Z,31.39
2018-07-31T18:17:07.091Z,31.38
2018-07-31T18:18:07.123Z,31.29
2018-07-31T18:20:00.068Z,31.25
2018-07-31T18:21:00.078Z,31.28
2018-07-31T18:22:53.025Z,31.20
2018-07-31T18:23:53.115Z,31.12
2018-07-31T18:25:45.962Z,31.01
2018-07-31T18:26:45.996Z,30.84
2018-07-31T18:28:38.944Z,30.70
2018-07-31T18:29:38.948Z,30.72
2018-07-31T18:31:31.881Z,30.80
2018-07-31T18:32:31.911Z,30.75
2018-07-31T18:34:24.864Z,30.72